createdAt,value
2019-02-21T00:00:45.496Z,24.00
2019-02-21T00:03:16.824Z,23.00
2019-02-21T00:05:47.844Z,24.93
2019-02-21T00:08:18.998Z,24.53
2019-02-21T00:10:50.078Z,23.10
2019-02-21T00:13:21.227Z,25.93
2019-02-21T00:15:52.315Z,22.50
2019-02-21T00:18:23.410Z,25.00
2019-02-21T00:20:54.494Z,23.97
2019-02-21T00:23:25.788Z,23.60
2019-02-21T00:25:56.953Z,23.50
2019-02-21T00:28:28.231Z,24.47
2019-02-21T00:31:00.262Z,25.53
2019-02-21T00:33:31.262Z,23.60
2019-02-21T00:36:02.365Z,24.10
2019-02-21T00:38:33.528Z,24.27
2019-02-21T00:41:05.027Z,23.10
2019-02-21T00:43:38.131Z,22.80
2019-02-21T00:46:09.226Z,21.73
2019-02-21T00:48:40.390Z,23.87
2019-02-21T00:51:11.522Z,23.30
2019-02-21T00:53:43.013Z,25.35
2019-02-21T00:56:14.026Z,22.37
2019-02-21T00:58:45.229Z,22.67
2019-02-21T01:01:16.283Z,23.62
2019-02-21T01:03:47.372Z,22.33
2019-02-21T01:06:18.424Z,22.47
2019-02-21T01:08:49.508Z,22.60
2019-02-21T01:11:20.521Z,21.90
2019-02-21T01:13:51.594Z,21.00
2019-02-21T01:16:22.792Z,20.10
2019-02-21T01:18:53.933Z,20.43
2019-02-21T01:21:25.106Z,21.70
2019-02-21T01:23:56.287Z,21.23
2019-02-21T01:26:27.419Z,21.17
2019-02-21T01:29:00.074Z,20.30
2019-02-21T01:31:31.166Z,21.00
2019-02-21T01:34:02.406Z,20.90
2019-02-21T01:36:33.571Z,23.57
2019-02-21T01:39:06.461Z,22.30
2019-02-21T01:41:38.596Z,20.30
2019-02-21T01:44:09.717Z,21.03
2019-02-21T01:46:40.886Z,20.87
2019-02-21T01:49:12.014Z,21.80
2019-02-21T01:51:43.197Z,19.13
2019-02-21T01:54:14.273Z,20.20
2019-02-21T01:56:45.281Z,21.83
2019-02-21T01:59:16.305Z,20.53
2019-02-21T02:01:47.306Z,19.40
2019-02-21T02:04:18.306Z,20.50
2019-02-21T02:06:49.466Z,22.80
2019-02-21T02:09:20.734Z,21.00
2019-02-21T02:11:51.911Z,21.77
2019-02-21T02:14:23.045Z,22.73
2019-02-21T02:16:54.095Z,23.40
2019-02-21T02:19:25.140Z,23.07
2019-02-21T02:21:56.141Z,21.40
2019-02-21T02:24:27.307Z,22.53
2019-02-21T02:27:00.267Z,21.80
2019-02-21T02:29:31.462Z,19.70
2019-02-21T02:32:02.473Z,21.27
2019-02-21T02:34:33.545Z,23.55
2019-02-21T02:37:04.805Z,21.90
2019-02-21T02:39:35.981Z,21.87
2019-02-21T02:42:08.719Z,19.67
2019-02-21T02:44:40.292Z,21.67
2019-02-21T02:47:11.411Z,21.60
2019-02-21T02:49:42.485Z,20.60
2019-02-21T02:52:13.586Z,20.87
2019-02-21T02:54:44.716Z,21.23
2019-02-21T02:57:15.702Z,23.05
2019-02-21T02:59:46.730Z,22.77
2019-02-21T03:02:17.723Z,21.47
2019-02-21T03:04:48.888Z,23.30
2019-02-21T03:07:21.072Z,21.50
2019-02-21T03:09:52.110Z,20.57
2019-02-21T03:12:23.310Z,21.43
2019-02-21T03:14:54.432Z,19.23
2019-02-21T03:17:25.524Z,20.27
2019-02-21T03:19:56.634Z,21.30
2019-02-21T03:22:27.717Z,23.90
2019-02-21T03:24:58.914Z,22.90
2019-02-21T03:27:30.037Z,23.12
2019-02-21T03:30:01.062Z,21.33
2019-02-21T03:32:32.198Z,22.07
2019-02-21T03:35:03.345Z,22.40
2019-02-21T03:37:34.480Z,21.67
2019-02-21T03:40:06.585Z,21.83
2019-02-21T03:42:38.097Z,22.43
2019-02-21T03:45:10.435Z,21.57
2019-02-21T03:47:41.590Z,23.73
2019-02-21T03:50:12.932Z,23.27
2019-02-21T03:52:44.077Z,23.30
2019-02-21T03:55:15.223Z,21.80
2019-02-21T03:57:46.315Z,22.20
2019-02-21T04:00:17.453Z,21.40
2019-02-21T04:02:48.793Z,20.47
2019-02-21T04:05:20.227Z,20.13
2019-02-21T04:07:51.289Z,23.67
2019-02-21T04:10:23.440Z,21.87
2019-02-21T04:12:54.568Z,23.37
2019-02-21T04:15:25.685Z,19.97
2019-02-21T04:17:56.817Z,20.80
2019-02-21T04:20:27.835Z,22.50
2019-02-21T04:22:58.910Z,22.43
2019-02-21T04:25:30.017Z,20.93
2019-02-21T04:28:01.015Z,21.33
2019-02-21T04:30:32.170Z,20.93
2019-02-21T04:33:03.375Z,21.67
2019-02-21T04:35:34.525Z,20.57
2019-02-21T04:38:05.728Z,23.13
2019-02-21T04:40:36.970Z,20.80
2019-02-21T04:43:08.178Z,20.60
2019-02-21T04:45:39.294Z,21.17
2019-02-21T04:48:10.325Z,23.50
2019-02-21T04:50:42.923Z,24.20
2019-02-21T04:53:14.089Z,22.57
2019-02-21T04:55:45.220Z,21.60
2019-02-21T04:58:16.402Z,21.83
2019-02-21T05:00:47.410Z,21.07
2019-02-21T05:03:18.507Z,18.73
2019-02-21T05:05:49.606Z,22.20
2019-02-21T05:08:20.667Z,20.77
2019-02-21T05:10:51.719Z,21.63
2019-02-21T05:13:22.700Z,20.40
2019-02-21T05:15:53.787Z,22.83
2019-02-21T05:18:24.854Z,21.00
2019-02-21T05:20:57.376Z,20.57
2019-02-21T05:23:28.362Z,21.10
2019-02-21T05:25:59.518Z,21.47
2019-02-21T05:28:32.147Z,20.53
2019-02-21T05:31:07.456Z,20.40
2019-02-21T05:34:06.722Z,21.13
2019-02-21T05:37:02.682Z,20.87
2019-02-21T05:39:42.556Z,21.87
2019-02-21T05:42:45.080Z,20.87
2019-02-21T05:45:38.239Z,25.37
2019-02-21T05:48:25.623Z,22.20
2019-02-21T05:51:05.471Z,21.03
2019-02-21T05:53:41.954Z,23.30
2019-02-21T05:56:29.661Z,26.82
2019-02-21T05:59:18.613Z,23.10
2019-02-21T06:02:10.134Z,22.93
2019-02-21T06:04:58.911Z,20.63
2019-02-21T06:07:43.894Z,22.07
2019-02-21T06:10:46.100Z,23.37
2019-02-21T06:13:33.458Z,22.47
2019-02-21T06:16:23.554Z,23.93
2019-02-21T06:19:12.642Z,21.77
2019-02-21T06:21:55.750Z,22.57
2019-02-21T06:24:51.553Z,21.90
2019-02-21T06:27:27.108Z,21.20
2019-02-21T06:30:01.849Z,21.53
2019-02-21T06:32:33.220Z,22.40
2019-02-21T06:35:04.414Z,21.60
2019-02-21T06:37:37.742Z,22.30
2019-02-21T06:40:08.382Z,22.13
2019-02-21T06:42:39.452Z,20.90
2019-02-21T06:45:10.603Z,19.30
2019-02-21T06:47:41.634Z,20.73
2019-02-21T06:50:14.480Z,20.27
2019-02-21T06:52:45.729Z,21.03
2019-02-21T06:55:16.948Z,18.67
2019-02-21T06:57:48.057Z,23.45
2019-02-21T07:00:19.175Z,20.67
2019-02-21T07:02:50.266Z,19.77
2019-02-21T07:05:21.607Z,19.70
2019-02-21T07:07:52.647Z,19.83
2019-02-21T07:10:23.808Z,18.40
2019-02-21T07:12:54.802Z,18.77
2019-02-21T07:15:25.881Z,19.13
2019-02-21T07:17:56.975Z,18.90
2019-02-21T07:20:28.103Z,19.00
2019-02-21T07:22:59.163Z,19.27
2019-02-21T07:25:47.064Z,18.07
2019-02-21T07:28:18.449Z,18.03
2019-02-21T07:30:50.449Z,18.00
2019-02-21T07:33:28.545Z,18.10
2019-02-21T07:35:54.757Z,17.70
2019-02-21T07:38:25.859Z,18.67
2019-02-21T07:40:56.959Z,19.33
2019-02-21T07:43:28.022Z,20.17
2019-02-21T07:45:59.073Z,19.83
2019-02-21T07:48:30.167Z,19.23
2019-02-21T07:51:01.397Z,19.07
2019-02-21T07:53:32.529Z,21.63
2019-02-21T07:56:03.682Z,19.30
2019-02-21T07:58:34.785Z,19.17
2019-02-21T08:01:05.874Z,18.07
2019-02-21T08:03:44.339Z,20.53
2019-02-21T08:06:10.104Z,20.80
2019-02-21T08:08:41.306Z,18.87
2019-02-21T08:11:12.481Z,18.50
2019-02-21T08:13:43.657Z,18.57
2019-02-21T08:16:14.864Z,18.90
2019-02-21T08:18:45.966Z,19.27
2019-02-21T08:21:16.983Z,19.83
2019-02-21T08:23:50.844Z,18.07
2019-02-21T08:26:20.871Z,19.17
2019-02-21T08:28:51.885Z,19.40
2019-02-21T08:31:23.074Z,20.27
2019-02-21T08:34:00.822Z,20.67
2019-02-21T08:36:31.959Z,21.30
2019-02-21T08:39:04.890Z,21.67
2019-02-21T08:41:36.749Z,21.93
2019-02-21T08:44:09.492Z,21.23
2019-02-21T08:46:40.808Z,20.73
2019-02-21T08:49:11.818Z,20.90
2019-02-21T08:51:42.847Z,20.93
2019-02-21T08:54:14.011Z,22.07
2019-02-21T08:56:45.110Z,23.07
2019-02-21T08:59:16.115Z,20.70
2019-02-21T09:01:47.323Z,20.73
2019-02-21T09:04:27.314Z,21.00
2019-02-21T09:06:51.346Z,21.73
2019-02-21T09:09:22.438Z,21.57
2019-02-21T09:11:53.919Z,20.93
2019-02-21T09:14:25.088Z,23.77
2019-02-21T09:16:56.112Z,22.10
2019-02-21T09:19:27.275Z,20.77
2019-02-21T09:21:58.379Z,21.73
2019-02-21T09:24:38.457Z,22.87
2019-02-21T09:27:02.272Z,22.17
2019-02-21T09:29:33.471Z,20.77
2019-02-21T09:32:06.841Z,20.83
2019-02-21T09:34:37.387Z,21.20
2019-02-21T09:37:08.569Z,22.97
2019-02-21T09:39:39.780Z,20.13
2019-02-21T09:42:11.026Z,19.17
2019-02-21T09:44:42.231Z,20.40
2019-02-21T09:47:13.324Z,17.80
2019-02-21T09:49:44.605Z,20.10
2019-02-21T09:52:15.888Z,20.30
2019-02-21T09:54:47.628Z,19.90
2019-02-21T09:57:19.053Z,18.53
2019-02-21T09:59:50.327Z,16.17
2019-02-21T10:02:23.176Z,16.57
2019-02-21T10:05:04.426Z,16.57
2019-02-21T10:07:27.298Z,16.70
2019-02-21T10:10:00.793Z,17.97
2019-02-21T10:12:31.228Z,14.50
2019-02-21T10:15:02.393Z,16.90
2019-02-21T10:17:33.770Z,16.40
2019-02-21T10:20:06.744Z,16.13
2019-02-21T10:22:38.440Z,16.07
2019-02-21T10:25:23.472Z,17.70
2019-02-21T10:27:54.777Z,15.30
2019-02-21T10:30:25.904Z,15.90
2019-02-21T10:32:56.990Z,15.87
2019-02-21T10:35:28.314Z,15.70
2019-02-21T10:37:59.532Z,14.17
2019-02-21T10:40:33.401Z,13.90
2019-02-21T10:43:04.754Z,13.20
2019-02-21T10:45:47.146Z,13.50
2019-02-21T10:48:08.868Z,13.10
2019-02-21T10:50:40.076Z,13.20
2019-02-21T10:53:11.239Z,14.00
2019-02-21T10:55:42.476Z,14.70
2019-02-21T10:58:14.381Z,14.47
2019-02-21T11:00:45.647Z,14.60
2019-02-21T11:03:16.817Z,16.67
2019-02-21T11:05:49.295Z,16.60
2019-02-21T11:08:20.409Z,15.80
2019-02-21T11:10:51.738Z,16.73
2019-02-21T11:13:22.861Z,15.30
2019-02-21T11:15:57.349Z,16.07
2019-02-21T11:18:28.700Z,16.00
2019-02-21T11:21:00.216Z,15.67
2019-02-21T11:23:31.314Z,18.73
2019-02-21T11:26:02.749Z,17.50
2019-02-21T11:28:34.020Z,17.07
2019-02-21T11:31:05.522Z,19.53
2019-02-21T11:33:36.618Z,15.60
2019-02-21T11:36:07.811Z,16.73
2019-02-21T11:38:38.945Z,16.17
2019-02-21T11:41:10.189Z,15.40
2019-02-21T11:43:41.306Z,13.67
2019-02-21T11:46:12.436Z,16.20
2019-02-21T11:48:43.586Z,16.60
2019-02-21T11:51:14.656Z,15.63
2019-02-21T11:53:45.828Z,13.93
2019-02-21T11:56:17.195Z,15.40
2019-02-21T11:58:48.373Z,16.30
2019-02-21T12:01:19.851Z,17.00
2019-02-21T12:03:50.949Z,17.03
2019-02-21T12:06:21.978Z,19.60
2019-02-21T12:08:53.170Z,18.30
2019-02-21T12:11:24.348Z,18.97
2019-02-21T12:13:55.741Z,19.50
2019-02-21T12:16:26.834Z,20.37
2019-02-21T12:18:58.583Z,18.13
2019-02-21T12:21:29.735Z,19.97
2019-02-21T12:24:00.854Z,17.90
2019-02-21T12:26:31.951Z,15.90
2019-02-21T12:29:02.970Z,16.30
2019-02-21T12:31:34.111Z,17.60
2019-02-21T12:34:05.300Z,18.20
2019-02-21T12:36:36.400Z,18.43
2019-02-21T12:39:08.837Z,18.63
2019-02-21T12:41:41.535Z,17.40
2019-02-21T12:44:13.828Z,19.13
2019-02-21T12:46:45.779Z,16.20
2019-02-21T12:49:16.949Z,17.50
2019-02-21T12:51:48.057Z,19.27
2019-02-21T12:54:19.101Z,18.50
2019-02-21T12:56:50.105Z,17.70
2019-02-21T12:59:21.137Z,16.50
2019-02-21T13:01:52.221Z,19.02
2019-02-21T13:04:23.372Z,17.87
2019-02-21T13:06:54.390Z,17.63
2019-02-21T13:09:25.570Z,17.63
2019-02-21T13:11:56.730Z,17.60
2019-02-21T13:14:27.834Z,17.30
2019-02-21T13:16:58.824Z,17.10
2019-02-21T13:19:29.945Z,17.03
2019-02-21T13:22:01.067Z,18.50
2019-02-21T13:24:32.138Z,17.50
2019-02-21T13:27:03.282Z,17.70
2019-02-21T13:29:34.397Z,18.12
2019-02-21T13:32:05.488Z,16.83
2019-02-21T13:34:36.506Z,17.70
2019-02-21T13:37:07.539Z,18.60
2019-02-21T13:39:38.603Z,18.73
2019-02-21T13:42:09.745Z,19.67
2019-02-21T13:44:40.838Z,16.30
2019-02-21T13:47:12.091Z,18.80
2019-02-21T13:49:43.233Z,19.60
2019-02-21T13:52:14.240Z,17.77
2019-02-21T13:54:45.444Z,19.57
2019-02-21T13:57:16.551Z,20.55
2019-02-21T13:59:47.712Z,20.40
2019-02-21T14:02:18.848Z,19.30
2019-02-21T14:04:49.901Z,19.57
2019-02-21T14:07:21.067Z,18.30
2019-02-21T14:09:52.157Z,18.10
2019-02-21T14:12:26.275Z,19.37
2019-02-21T14:14:56.098Z,18.90
2019-02-21T14:17:28.604Z,16.77
2019-02-21T14:19:59.680Z,16.40
2019-02-21T14:22:30.796Z,14.47
2019-02-21T14:25:01.825Z,14.00
2019-02-21T14:27:32.948Z,14.73
2019-02-21T14:30:04.592Z,13.40
2019-02-21T14:32:35.744Z,13.53
2019-02-21T14:35:07.789Z,12.50
2019-02-21T14:37:38.860Z,11.23
2019-02-21T14:40:10.920Z,12.03
2019-02-21T14:42:42.081Z,12.20
2019-02-21T14:45:14.754Z,10.80
2019-02-21T14:47:45.961Z,11.73
2019-02-21T14:50:17.304Z,11.90
2019-02-21T15:08:45.638Z,10.77
2019-02-21T15:11:16.739Z,8.53
2019-02-21T15:13:47.887Z,8.13
2019-02-21T15:16:18.881Z,9.73
2019-02-21T15:18:49.904Z,9.20
2019-02-21T15:21:20.978Z,9.07
2019-02-21T15:23:52.208Z,8.87
2019-02-21T15:26:23.352Z,8.53
2019-02-21T15:28:54.367Z,10.17
2019-02-21T15:31:25.518Z,8.30
2019-02-21T15:33:56.745Z,8.43
2019-02-21T15:36:37.985Z,8.90
2019-02-21T15:39:00.552Z,8.93
2019-02-21T15:41:32.200Z,9.00
2019-02-21T15:44:03.404Z,8.60
2019-02-21T15:46:34.474Z,9.50
2019-02-21T15:49:05.582Z,8.97
2019-02-21T15:51:36.613Z,9.27
2019-02-21T15:54:07.933Z,9.23
2019-02-21T15:56:39.084Z,8.80
2019-02-21T15:59:10.213Z,8.80
2019-02-21T16:01:47.586Z,9.03
2019-02-21T16:04:14.091Z,8.93
2019-02-21T16:06:51.873Z,8.67
2019-02-21T16:09:19.076Z,9.57
2019-02-21T16:11:50.195Z,9.20
2019-02-21T16:14:21.284Z,9.87
2019-02-21T16:16:52.509Z,9.73
2019-02-21T16:19:23.676Z,9.40
2019-02-21T16:21:54.758Z,9.27
2019-02-21T16:24:25.765Z,10.03
2019-02-21T16:26:56.931Z,9.90
2019-02-21T16:29:28.913Z,11.10
2019-02-21T16:32:00.196Z,8.50
2019-02-21T16:34:33.052Z,9.00
2019-02-21T16:37:04.020Z,9.00
2019-02-21T16:39:35.046Z,8.40
2019-02-21T16:42:06.165Z,8.80
2019-02-21T16:44:37.337Z,9.80
2019-02-21T16:47:08.442Z,8.67
2019-02-21T16:49:39.513Z,9.57
2019-02-21T16:52:10.671Z,9.03
2019-02-21T16:54:41.689Z,10.20
2019-02-21T16:57:12.714Z,9.50
2019-02-21T16:59:44.871Z,9.90
2019-02-21T17:02:15.890Z,9.10
2019-02-21T17:04:47.123Z,9.83
2019-02-21T17:07:20.162Z,8.60
2019-02-21T17:09:51.077Z,10.70
2019-02-21T17:12:22.257Z,11.20
2019-02-21T17:14:53.415Z,10.70
2019-02-21T17:17:24.473Z,11.60
2019-02-21T17:19:56.735Z,12.63
2019-02-21T17:22:27.839Z,11.57
2019-02-21T17:24:58.953Z,13.57
2019-02-21T17:27:30.075Z,13.57
2019-02-21T17:30:01.128Z,13.20
2019-02-21T17:32:32.291Z,13.67
2019-02-21T17:35:03.477Z,13.23
2019-02-21T17:37:34.658Z,15.27
2019-02-21T17:40:07.107Z,14.17
2019-02-21T17:42:38.346Z,13.43
2019-02-21T17:45:11.251Z,13.30
2019-02-21T17:47:42.409Z,14.90
2019-02-21T17:50:14.903Z,14.60
2019-02-21T17:52:46.088Z,15.90
2019-02-21T17:55:17.573Z,14.87
2019-02-21T17:57:50.015Z,13.50
2019-02-21T18:00:27.059Z,14.37
2019-02-21T18:02:58.242Z,14.97
2019-02-21T18:05:29.450Z,15.00
2019-02-21T18:08:00.538Z,15.80
2019-02-21T18:10:31.653Z,15.80
2019-02-21T18:13:02.744Z,17.50
2019-02-21T18:15:34.003Z,16.77
2019-02-21T18:18:05.187Z,18.87
2019-02-21T18:20:36.399Z,19.23
2019-02-21T18:23:07.758Z,17.90
2019-02-21T18:25:42.067Z,18.50
2019-02-21T18:28:13.081Z,18.20
2019-02-21T18:30:44.314Z,21.00
2019-02-21T18:33:15.476Z,19.30
2019-02-21T18:35:46.748Z,16.57
2019-02-21T18:38:19.009Z,18.70
2019-02-21T18:40:50.054Z,20.80
2019-02-21T18:43:21.206Z,23.50
2019-02-21T18:45:52.394Z,21.33
2019-02-21T18:48:23.477Z,23.73
2019-02-21T18:50:54.581Z,22.13
2019-02-21T18:53:25.689Z,26.70
2019-02-21T18:55:57.747Z,27.73
2019-02-21T18:58:30.008Z,26.00
2019-02-21T19:01:01.106Z,22.80
2019-02-21T19:03:32.194Z,25.40
2019-02-21T19:06:03.456Z,22.57
2019-02-21T19:08:34.573Z,26.23
2019-02-21T19:11:05.868Z,25.52
2019-02-21T19:13:36.881Z,24.73
2019-02-21T19:16:08.143Z,23.27
2019-02-21T19:18:39.842Z,25.00
2019-02-21T19:21:11.004Z,26.10
2019-02-21T19:23:42.139Z,24.10
2019-02-21T19:26:13.547Z,24.87
2019-02-21T19:28:44.875Z,24.03
2019-02-21T19:31:18.660Z,73.63
2019-02-21T19:33:50.821Z,25.07
2019-02-21T19:36:22.090Z,25.80
2019-02-21T19:38:53.233Z,26.73
2019-02-21T19:41:25.441Z,27.65
2019-02-21T19:43:56.649Z,25.87
2019-02-21T19:46:27.820Z,24.80
2019-02-21T19:48:58.953Z,28.80
2019-02-21T19:51:30.103Z,25.60
2019-02-21T19:54:01.289Z,25.90
2019-02-21T19:56:32.444Z,25.60
2019-02-21T19:59:03.622Z,26.05
2019-02-21T20:01:34.697Z,26.00
2019-02-21T20:04:05.836Z,25.77
2019-02-21T20:06:37.008Z,26.83
2019-02-21T20:09:08.752Z,25.53
2019-02-21T20:11:40.816Z,26.13
2019-02-21T20:14:11.962Z,25.80
2019-02-21T20:16:43.061Z,27.33
2019-02-21T20:19:14.366Z,26.30
2019-02-21T20:21:45.543Z,26.68
2019-02-21T20:24:16.756Z,24.40
2019-02-21T20:26:47.940Z,23.83
2019-02-21T20:29:19.104Z,23.73
2019-02-21T20:31:50.247Z,25.43
2019-02-21T20:34:22.452Z,26.63
2019-02-21T20:36:54.150Z,26.20
2019-02-21T20:39:25.323Z,27.45
2019-02-21T20:41:56.507Z,26.20
2019-02-21T20:44:27.643Z,28.70
2019-02-21T20:46:58.748Z,26.07
2019-02-21T20:49:29.849Z,25.40
2019-02-21T20:52:02.150Z,24.70
2019-02-21T20:54:33.201Z,25.02
2019-02-21T20:57:04.550Z,23.37
2019-02-21T20:59:35.957Z,23.10
2019-02-21T21:02:07.162Z,22.90
2019-02-21T21:04:38.271Z,23.85
2019-02-21T21:07:12.256Z,23.60
2019-02-21T21:09:43.537Z,71.63
2019-02-21T21:12:14.889Z,25.70
2019-02-21T21:14:46.088Z,24.87
2019-02-21T21:17:17.183Z,25.12
2019-02-21T21:19:48.405Z,23.67
2019-02-21T21:22:19.592Z,25.40
2019-02-21T21:24:50.745Z,22.90
2019-02-21T21:27:21.821Z,24.77
2019-02-21T21:29:52.999Z,23.10
2019-02-21T21:32:24.028Z,26.10
2019-02-21T21:34:55.198Z,24.43
2019-02-21T21:37:26.432Z,23.97
2019-02-21T21:39:57.695Z,25.90
2019-02-21T21:42:28.847Z,26.00
2019-02-21T21:44:59.947Z,25.80
2019-02-21T21:47:31.197Z,26.23
2019-02-21T21:50:02.283Z,25.50
2019-02-21T21:52:34.569Z,24.70
2019-02-21T21:55:06.448Z,25.13
2019-02-21T21:57:37.526Z,25.67
2019-02-21T22:00:12.567Z,24.97
2019-02-21T22:02:45.268Z,28.27
2019-02-21T22:05:16.851Z,27.67
2019-02-21T22:07:49.382Z,28.33
2019-02-21T22:10:20.811Z,26.00
2019-02-21T22:12:51.889Z,24.73
2019-02-21T22:15:23.105Z,25.27
2019-02-21T22:17:54.190Z,25.23
2019-02-21T22:20:25.343Z,25.97
2019-02-21T22:22:56.423Z,24.50
2019-02-21T22:25:27.581Z,24.57
2019-02-21T22:28:00.206Z,23.80
2019-02-21T22:30:31.326Z,25.53
2019-02-21T22:33:02.437Z,23.63
2019-02-21T22:35:33.717Z,24.23
2019-02-21T22:38:05.026Z,24.90
2019-02-21T22:40:36.371Z,24.30
2019-02-21T22:43:07.463Z,22.33
2019-02-21T22:45:38.638Z,23.13
2019-02-21T22:48:09.806Z,22.27
2019-02-21T22:50:40.873Z,23.20
2019-02-21T22:53:11.950Z,22.80
2019-02-21T22:55:43.005Z,21.80
2019-02-21T22:58:14.155Z,21.97
2019-02-21T23:01:03.466Z,24.70
2019-02-21T23:03:50.688Z,20.83
2019-02-21T23:06:53.354Z,32.83
2019-02-21T23:09:27.838Z,23.60
2019-02-21T23:11:58.588Z,22.93
2019-02-21T23:14:29.929Z,22.37
2019-02-21T23:17:01.081Z,22.50
2019-02-21T23:19:36.020Z,21.03
2019-02-21T23:22:11.014Z,21.93
2019-02-21T23:24:42.298Z,22.87
2019-02-21T23:27:15.074Z,24.80
2019-02-21T23:29:46.219Z,23.10
2019-02-21T23:32:17.339Z,24.50
2019-02-21T23:34:48.374Z,25.10
2019-02-21T23:37:19.763Z,23.95
2019-02-21T23:39:51.998Z,23.20
2019-02-21T23:42:24.492Z,23.67
2019-02-21T23:44:55.633Z,21.90
2019-02-21T23:47:26.929Z,22.67
2019-02-21T23:49:58.129Z,24.40
2019-02-21T23:52:29.272Z,22.10
2019-02-21T23:55:00.354Z,22.00
2019-02-21T23:57:31.598Z,21.40
